createdAt,value
2023-05-16T00:00:41.601Z,13.60
2023-05-16T00:03:09.524Z,13.50
2023-05-16T00:05:36.932Z,13.50
2023-05-16T00:08:04.178Z,13.50
2023-05-16T00:10:31.046Z,13.50
2023-05-16T00:12:58.034Z,13.50
2023-05-16T00:15:25.589Z,13.50
2023-05-16T00:17:52.744Z,13.50
2023-05-16T00:20:23.607Z,13.60
2023-05-16T00:22:51.292Z,13.60
2023-05-16T00:25:18.872Z,13.60
2023-05-16T00:27:46.225Z,13.70
2023-05-16T00:30:13.566Z,13.70
2023-05-16T00:32:40.648Z,13.70
2023-05-16T00:35:10.999Z,13.70
2023-05-16T00:37:39.162Z,13.70
2023-05-16T00:40:06.700Z,13.70
2023-05-16T00:42:34.236Z,13.70
2023-05-16T00:45:01.330Z,13.80
2023-05-16T00:47:28.407Z,13.80
2023-05-16T00:49:55.647Z,13.70
2023-05-16T00:52:22.814Z,13.70
2023-05-16T00:54:50.870Z,13.80
2023-05-16T00:57:18.039Z,13.70
2023-05-16T00:59:46.793Z,13.80
2023-05-16T01:02:14.640Z,13.80
2023-05-16T01:04:43.862Z,13.80
2023-05-16T01:07:11.048Z,13.80
2023-05-16T01:09:38.844Z,13.80
2023-05-16T01:12:24.794Z,13.80
2023-05-16T01:15:06.788Z,13.80
2023-05-16T01:17:42.392Z,13.90
2023-05-16T01:20:30.155Z,13.90
2023-05-16T01:23:08.418Z,13.90
2023-05-16T01:25:50.327Z,13.90
2023-05-16T01:28:19.388Z,13.90
2023-05-16T01:30:47.336Z,13.90
2023-05-16T01:33:14.409Z,13.90
2023-05-16T01:35:54.493Z,13.90
2023-05-16T01:38:27.625Z,13.90
2023-05-16T01:41:23.678Z,13.90
2023-05-16T01:43:56.871Z,13.90
2023-05-16T01:46:37.529Z,13.90
2023-05-16T01:49:42.595Z,13.90
2023-05-16T01:52:15.094Z,13.90
2023-05-16T01:54:45.650Z,14.00
2023-05-16T01:57:13.969Z,13.90
2023-05-16T01:59:43.302Z,14.00
2023-05-16T02:02:10.199Z,14.00
2023-05-16T02:04:37.094Z,14.00
2023-05-16T02:07:04.301Z,14.10
2023-05-16T02:09:33.292Z,14.00
2023-05-16T02:12:00.789Z,14.10
2023-05-16T02:14:27.818Z,14.10
2023-05-16T02:16:55.388Z,14.00
2023-05-16T02:19:22.332Z,14.00
2023-05-16T02:21:49.237Z,14.00
2023-05-16T02:24:16.095Z,14.00
2023-05-16T02:26:43.212Z,14.00
2023-05-16T02:29:10.520Z,14.00
2023-05-16T02:31:37.532Z,14.10
2023-05-16T02:34:04.950Z,14.10
2023-05-16T02:36:32.099Z,14.10
2023-05-16T02:38:59.178Z,14.10
2023-05-16T02:41:26.891Z,14.10
2023-05-16T02:43:54.121Z,14.10
2023-05-16T02:46:22.001Z,14.10
2023-05-16T02:48:49.869Z,14.10
2023-05-16T02:51:17.038Z,14.10
2023-05-16T02:53:43.930Z,14.10
2023-05-16T02:56:11.052Z,14.10
2023-05-16T02:58:37.995Z,14.10
2023-05-16T03:01:05.077Z,14.10
2023-05-16T03:03:33.451Z,14.10
2023-05-16T03:06:00.535Z,14.10
2023-05-16T03:08:27.650Z,14.10
2023-05-16T03:10:54.576Z,14.10
2023-05-16T03:13:22.187Z,14.20
2023-05-16T03:15:50.554Z,14.20
2023-05-16T03:18:17.858Z,14.20
2023-05-16T03:20:44.909Z,14.20
2023-05-16T03:23:12.340Z,14.20
2023-05-16T03:25:39.302Z,14.20
2023-05-16T03:28:10.725Z,14.20
2023-05-16T03:30:37.726Z,14.20
2023-05-16T03:33:04.779Z,14.20
2023-05-16T03:35:32.984Z,14.20
2023-05-16T03:38:00.198Z,14.20
2023-05-16T03:40:27.256Z,14.20
2023-05-16T03:42:54.335Z,14.20
2023-05-16T03:45:21.831Z,14.20
2023-05-16T03:47:51.911Z,14.20
2023-05-16T03:50:18.953Z,14.20
2023-05-16T03:52:46.055Z,14.20
2023-05-16T03:55:15.215Z,14.20
2023-05-16T03:57:43.057Z,14.20
2023-05-16T04:00:12.647Z,14.20
2023-05-16T04:02:41.213Z,14.20
2023-05-16T04:05:09.843Z,14.20
2023-05-16T04:07:38.419Z,14.20
2023-05-16T04:10:06.456Z,14.20
2023-05-16T04:12:33.456Z,14.20
2023-05-16T04:15:00.530Z,14.30
2023-05-16T04:17:27.483Z,14.30
2023-05-16T04:19:54.508Z,14.30
2023-05-16T04:22:23.132Z,14.30
2023-05-16T04:24:50.447Z,14.30
2023-05-16T04:27:17.969Z,14.30
2023-05-16T04:29:45.092Z,14.40
2023-05-16T04:32:12.576Z,14.30
2023-05-16T04:34:40.472Z,14.30
2023-05-16T04:37:08.703Z,14.30
2023-05-16T04:39:36.924Z,14.20
2023-05-16T04:42:04.556Z,14.20
2023-05-16T04:44:31.929Z,14.20
2023-05-16T04:47:08.494Z,14.20
2023-05-16T04:49:35.700Z,14.20
2023-05-16T04:52:02.846Z,14.20
2023-05-16T04:54:29.791Z,14.20
2023-05-16T04:56:57.534Z,14.20
2023-05-16T04:59:24.536Z,14.20
2023-05-16T05:01:51.556Z,14.10
2023-05-16T05:04:18.627Z,14.10
2023-05-16T05:06:45.666Z,14.10
2023-05-16T05:09:12.707Z,14.10
2023-05-16T05:11:39.796Z,14.00
2023-05-16T05:14:06.738Z,14.00
2023-05-16T05:16:33.718Z,14.00
2023-05-16T05:19:01.076Z,14.00
2023-05-16T05:21:28.027Z,14.00
2023-05-16T05:23:54.906Z,13.90
2023-05-16T05:26:22.387Z,13.80
2023-05-16T05:29:01.160Z,13.80
2023-05-16T05:31:33.878Z,13.80
2023-05-16T05:34:01.048Z,13.90
2023-05-16T05:36:28.118Z,13.80
2023-05-16T05:38:55.101Z,13.80
2023-05-16T05:41:22.463Z,13.80
2023-05-16T05:43:49.599Z,13.80
2023-05-16T05:46:17.391Z,13.80
2023-05-16T05:48:45.270Z,13.70
2023-05-16T05:51:14.322Z,13.70
2023-05-16T05:53:41.991Z,13.70
2023-05-16T05:56:09.915Z,13.70
2023-05-16T05:58:37.077Z,13.70
2023-05-16T06:01:04.137Z,13.70
2023-05-16T06:03:31.178Z,13.70
2023-05-16T06:05:58.671Z,13.70
2023-05-16T06:08:25.644Z,13.60
2023-05-16T06:10:52.762Z,13.60
2023-05-16T06:13:19.661Z,13.50
2023-05-16T06:15:51.827Z,13.50
2023-05-16T06:18:19.307Z,13.50
2023-05-16T06:20:46.240Z,13.50
2023-05-16T06:23:13.273Z,13.50
2023-05-16T06:25:40.225Z,13.50
2023-05-16T06:28:07.188Z,13.50
2023-05-16T06:30:34.962Z,13.60
2023-05-16T06:33:02.030Z,13.60
2023-05-16T06:35:29.340Z,13.60
2023-05-16T06:37:56.354Z,13.60
2023-05-16T06:40:23.249Z,13.60
2023-05-16T06:42:50.266Z,13.60
2023-05-16T06:45:17.399Z,13.50
2023-05-16T06:47:44.361Z,13.50
2023-05-16T06:50:11.505Z,13.40
2023-05-16T06:52:38.622Z,13.40
2023-05-16T06:55:06.044Z,13.40
2023-05-16T06:57:32.991Z,13.50
2023-05-16T06:59:59.901Z,13.50
2023-05-16T07:02:26.966Z,13.50
2023-05-16T07:04:55.726Z,13.50
2023-05-16T07:07:22.683Z,13.50
2023-05-16T07:09:49.633Z,13.60
2023-05-16T07:12:17.026Z,13.60
2023-05-16T07:14:44.157Z,13.60
2023-05-16T07:17:11.766Z,13.60
2023-05-16T07:19:38.796Z,13.70
2023-05-16T07:22:06.208Z,13.70
2023-05-16T07:24:33.298Z,13.70
2023-05-16T07:27:00.251Z,13.70
2023-05-16T07:29:27.700Z,13.70
2023-05-16T07:31:54.854Z,13.80
2023-05-16T07:34:21.860Z,13.80
2023-05-16T07:36:48.888Z,13.70
2023-05-16T07:39:16.371Z,13.80
2023-05-16T07:41:43.282Z,13.70
2023-05-16T07:44:10.306Z,13.80
2023-05-16T07:46:38.188Z,13.80
2023-05-16T07:49:05.347Z,13.80
2023-05-16T07:51:32.789Z,13.80
2023-05-16T07:54:00.010Z,13.90
2023-05-16T07:56:27.049Z,13.90
2023-05-16T07:58:55.790Z,13.90
2023-05-16T08:01:22.849Z,13.80
2023-05-16T08:03:50.251Z,13.80
2023-05-16T08:06:17.384Z,13.70
2023-05-16T08:08:44.403Z,13.70
2023-05-16T08:11:11.461Z,13.60
2023-05-16T08:13:38.505Z,13.60
2023-05-16T08:16:06.389Z,13.60
2023-05-16T08:18:33.622Z,13.60
2023-05-16T08:21:00.725Z,13.60
2023-05-16T08:23:27.752Z,13.70
2023-05-16T08:25:55.003Z,13.70
2023-05-16T08:28:22.204Z,13.70
2023-05-16T08:30:49.492Z,13.70
2023-05-16T08:33:16.782Z,13.80
2023-05-16T08:35:45.021Z,13.80
2023-05-16T08:38:12.056Z,13.80
2023-05-16T08:40:41.028Z,13.90
2023-05-16T08:43:08.080Z,13.90
2023-05-16T08:45:35.632Z,14.00
2023-05-16T08:48:07.216Z,14.00
2023-05-16T08:50:37.070Z,14.00
2023-05-16T08:53:08.004Z,13.90
2023-05-16T08:55:36.803Z,13.90
2023-05-16T08:58:04.509Z,14.00
2023-05-16T09:00:32.032Z,13.90
2023-05-16T09:02:59.463Z,13.90
2023-05-16T09:05:28.592Z,13.90
2023-05-16T09:07:55.904Z,14.00
2023-05-16T09:10:22.997Z,14.00
2023-05-16T09:12:50.146Z,14.10
2023-05-16T09:15:19.272Z,14.10
2023-05-16T09:17:47.703Z,14.10
2023-05-16T09:20:19.967Z,14.20
2023-05-16T09:22:56.442Z,14.10
2023-05-16T09:27:56.463Z,14.10
2023-05-16T09:30:31.734Z,14.10
2023-05-16T09:32:59.493Z,14.10
2023-05-16T09:37:57.013Z,14.20
2023-05-16T09:40:24.598Z,14.20
2023-05-16T09:43:05.042Z,14.10
2023-05-16T09:45:36.729Z,14.10
2023-05-16T09:48:08.796Z,13.90
2023-05-16T09:50:37.947Z,13.90
2023-05-16T09:53:05.933Z,14.00
2023-05-16T09:55:33.792Z,14.00
2023-05-16T09:58:01.630Z,13.90
2023-05-16T10:00:35.809Z,13.90
2023-05-16T10:03:06.470Z,13.90
2023-05-16T10:05:34.991Z,13.90
2023-05-16T10:08:04.689Z,14.00
2023-05-16T10:10:36.013Z,14.00
2023-05-16T10:13:06.174Z,14.10
2023-05-16T10:15:34.101Z,14.10
2023-05-16T10:18:04.247Z,14.10
2023-05-16T10:20:31.844Z,14.00
2023-05-16T10:22:59.615Z,14.00
2023-05-16T10:25:32.825Z,13.90
2023-05-16T10:28:00.264Z,13.90
2023-05-16T10:30:27.490Z,13.80
2023-05-16T10:32:55.006Z,13.80
2023-05-16T10:35:22.391Z,13.80
2023-05-16T10:37:51.708Z,13.90
2023-05-16T10:40:19.805Z,13.70
2023-05-16T10:43:01.178Z,13.60
2023-05-16T10:45:28.846Z,13.70
2023-05-16T10:48:10.148Z,13.70
2023-05-16T10:50:45.292Z,13.70
2023-05-16T10:53:18.547Z,13.70
2023-05-16T10:55:51.420Z,13.70
2023-05-16T10:58:38.750Z,13.70
2023-05-16T11:01:34.126Z,13.70
2023-05-16T11:04:02.933Z,13.80
2023-05-16T11:06:42.972Z,13.80
2023-05-16T11:09:15.697Z,13.90
2023-05-16T11:11:56.952Z,13.90
2023-05-16T11:14:24.622Z,13.90
2023-05-16T11:16:53.835Z,13.90
2023-05-16T11:19:35.163Z,13.80
2023-05-16T11:22:34.646Z,13.80
2023-05-16T11:25:07.026Z,13.80
2023-05-16T11:27:45.255Z,13.90
2023-05-16T11:30:22.118Z,13.90
2023-05-16T11:32:50.975Z,13.90
2023-05-16T11:35:18.683Z,13.80
2023-05-16T11:37:47.184Z,13.90
2023-05-16T11:40:15.772Z,13.90
2023-05-16T11:42:48.015Z,14.00
2023-05-16T11:45:24.756Z,14.00
2023-05-16T11:47:52.191Z,14.00
2023-05-16T11:50:22.336Z,14.00
2023-05-16T11:52:56.296Z,14.10
2023-05-16T11:55:40.217Z,14.10
2023-05-16T11:58:08.973Z,14.10
2023-05-16T12:00:36.156Z,14.20
2023-05-16T12:03:05.004Z,14.20
2023-05-16T12:05:34.275Z,14.20
2023-05-16T12:08:02.898Z,14.20
2023-05-16T12:10:33.762Z,14.20
2023-05-16T12:13:01.060Z,14.30
2023-05-16T12:15:28.774Z,14.40
2023-05-16T12:17:57.104Z,14.50
2023-05-16T12:20:26.244Z,14.70
2023-05-16T12:22:53.458Z,14.80
2023-05-16T12:25:36.499Z,15.00
2023-05-16T12:28:04.687Z,15.00
2023-05-16T12:30:33.242Z,15.00
2023-05-16T12:33:05.092Z,14.90
2023-05-16T12:35:37.709Z,14.80
2023-05-16T12:38:06.132Z,14.90
2023-05-16T12:40:33.202Z,14.80
2023-05-16T12:43:00.334Z,14.80
2023-05-16T12:45:30.150Z,14.70
2023-05-16T12:47:57.193Z,14.60
2023-05-16T12:50:27.468Z,14.50
2023-05-16T12:52:59.266Z,14.60
2023-05-16T12:55:27.085Z,14.60
2023-05-16T12:57:57.167Z,14.60
2023-05-16T13:00:24.919Z,14.60
2023-05-16T13:02:52.317Z,14.60
2023-05-16T13:05:20.674Z,14.60
2023-05-16T13:07:48.002Z,14.50
2023-05-16T13:10:14.947Z,14.50
2023-05-16T13:12:42.265Z,14.50
2023-05-16T13:15:11.383Z,14.60
2023-05-16T13:17:40.092Z,14.70
2023-05-16T13:20:13.992Z,14.60
2023-05-16T13:22:42.364Z,14.30
2023-05-16T13:25:10.790Z,14.00
2023-05-16T13:27:37.930Z,13.90
2023-05-16T13:30:05.956Z,13.90
2023-05-16T13:32:33.037Z,13.90
2023-05-16T13:35:00.031Z,13.90
2023-05-16T13:37:27.129Z,13.90
2023-05-16T13:39:57.296Z,14.00
2023-05-16T13:42:24.541Z,13.90
2023-05-16T13:44:51.616Z,14.00
2023-05-16T13:47:18.652Z,14.00
2023-05-16T13:49:46.188Z,14.10
2023-05-16T13:52:13.254Z,14.10
2023-05-16T13:54:41.537Z,14.10
2023-05-16T13:57:08.744Z,14.10
2023-05-16T13:59:59.109Z,14.20
2023-05-16T14:02:23.012Z,14.20
2023-05-16T14:04:50.249Z,14.30
2023-05-16T14:07:17.309Z,14.40
2023-05-16T14:09:45.374Z,14.40
2023-05-16T14:12:12.361Z,14.40
2023-05-16T14:14:40.141Z,14.50
2023-05-16T14:17:07.575Z,14.60
2023-05-16T14:19:35.067Z,14.60
2023-05-16T14:22:02.550Z,14.60
2023-05-16T14:24:29.663Z,14.60
2023-05-16T14:26:56.701Z,14.70
2023-05-16T14:29:24.387Z,14.80
2023-05-16T14:31:51.608Z,14.80
2023-05-16T14:34:18.738Z,14.80
2023-05-16T14:36:45.902Z,14.90
2023-05-16T14:39:12.868Z,14.90
2023-05-16T14:41:40.293Z,14.80
2023-05-16T14:44:07.227Z,14.90
2023-05-16T14:46:34.497Z,14.90
2023-05-16T14:49:01.702Z,15.00
2023-05-16T14:51:28.760Z,15.00
2023-05-16T14:53:56.238Z,15.10
2023-05-16T14:56:23.256Z,15.20
2023-05-16T14:58:50.188Z,15.30
2023-05-16T15:01:17.461Z,15.30
2023-05-16T15:03:54.658Z,15.40
2023-05-16T15:06:23.832Z,15.40
2023-05-16T15:08:50.996Z,15.40
2023-05-16T15:11:18.104Z,15.50
2023-05-16T15:13:45.046Z,15.60
2023-05-16T15:16:12.528Z,15.60
2023-05-16T15:18:41.149Z,15.70
2023-05-16T15:21:09.355Z,15.70
2023-05-16T15:23:36.643Z,15.70
2023-05-16T15:26:04.287Z,15.80
2023-05-16T15:28:31.454Z,15.70
2023-05-16T15:30:58.533Z,15.70
2023-05-16T15:33:25.583Z,15.70
2023-05-16T15:35:53.375Z,15.70
2023-05-16T15:38:20.440Z,15.70
2023-05-16T15:40:50.758Z,15.70
2023-05-16T15:43:25.098Z,15.80
2023-05-16T15:45:52.800Z,15.80
2023-05-16T15:48:19.954Z,15.90
2023-05-16T15:50:47.446Z,15.90
2023-05-16T15:53:14.697Z,15.90
2023-05-16T15:55:41.853Z,15.80
2023-05-16T15:58:09.354Z,15.80
2023-05-16T16:00:36.538Z,15.80
2023-05-16T16:03:03.746Z,15.90
2023-05-16T16:05:30.861Z,16.00
2023-05-16T16:07:58.408Z,16.00
2023-05-16T16:10:27.084Z,16.00
2023-05-16T16:13:04.761Z,16.00
2023-05-16T16:15:33.552Z,16.00
2023-05-16T16:18:01.295Z,15.90
2023-05-16T16:20:28.575Z,15.90
2023-05-16T16:22:55.578Z,15.90
2023-05-16T16:25:22.863Z,15.90
2023-05-16T16:27:50.040Z,15.80
2023-05-16T16:30:17.294Z,15.80
2023-05-16T16:32:44.265Z,15.80
2023-05-16T16:35:11.786Z,15.70
2023-05-16T16:37:39.098Z,15.70
2023-05-16T16:40:09.193Z,15.70
2023-05-16T16:42:38.077Z,15.70
2023-05-16T16:45:06.113Z,15.60
2023-05-16T16:47:33.567Z,15.60
2023-05-16T16:50:01.467Z,15.60
2023-05-16T16:52:30.022Z,15.50
2023-05-16T16:54:57.029Z,15.50
2023-05-16T16:57:24.532Z,15.50
2023-05-16T16:59:51.647Z,15.40
2023-05-16T17:02:19.092Z,15.30
2023-05-16T17:04:46.392Z,15.40
2023-05-16T17:07:13.752Z,15.40
2023-05-16T17:09:42.657Z,15.50
2023-05-16T17:12:18.831Z,15.50
2023-05-16T17:14:49.698Z,15.40
2023-05-16T17:17:17.864Z,15.50
2023-05-16T17:19:47.073Z,15.50
2023-05-16T17:22:14.592Z,15.50
2023-05-16T17:24:41.605Z,15.50
2023-05-16T17:27:08.943Z,15.60
2023-05-16T17:29:36.044Z,15.60
2023-05-16T17:32:03.166Z,15.60
2023-05-16T17:34:30.250Z,15.50
2023-05-16T17:36:57.265Z,15.50
2023-05-16T17:39:24.904Z,15.50
2023-05-16T17:41:54.491Z,15.40
2023-05-16T17:44:21.978Z,15.40
2023-05-16T17:46:49.008Z,15.40
2023-05-16T17:49:16.063Z,15.30
2023-05-16T17:51:47.924Z,15.30
2023-05-16T17:54:16.386Z,15.30
2023-05-16T17:56:43.860Z,15.30
2023-05-16T17:59:11.397Z,15.30
2023-05-16T18:01:39.066Z,15.20
2023-05-16T18:04:06.994Z,15.10
2023-05-16T18:06:38.227Z,15.10
2023-05-16T18:09:10.061Z,15.10
2023-05-16T18:11:39.206Z,15.10
2023-05-16T18:14:08.916Z,15.00
2023-05-16T18:16:36.239Z,15.00
2023-05-16T18:19:05.044Z,14.90
2023-05-16T18:21:32.552Z,14.90
2023-05-16T18:23:59.672Z,14.90
2023-05-16T18:26:29.326Z,14.90
2023-05-16T18:28:56.538Z,14.90
2023-05-16T18:31:24.137Z,14.80
2023-05-16T18:33:51.140Z,14.80
2023-05-16T18:36:18.270Z,14.80
2023-05-16T18:38:45.887Z,14.70
2023-05-16T18:41:13.109Z,14.50
2023-05-16T18:43:40.022Z,14.50
2023-05-16T18:46:07.360Z,14.50
2023-05-16T18:48:36.179Z,14.50
2023-05-16T18:51:04.047Z,14.40
2023-05-16T18:53:31.490Z,14.40
2023-05-16T18:55:58.967Z,14.30
2023-05-16T18:58:25.977Z,14.20
2023-05-16T19:00:53.131Z,14.20
2023-05-16T19:03:20.196Z,14.00
2023-05-16T19:05:47.805Z,14.00
2023-05-16T19:08:15.604Z,13.90
2023-05-16T19:10:43.109Z,13.90
2023-05-16T19:13:10.174Z,13.90
2023-05-16T19:15:38.217Z,13.90
2023-05-16T19:18:06.887Z,13.80
2023-05-16T19:20:35.471Z,13.80
2023-05-16T19:23:03.800Z,13.70
2023-05-16T19:25:30.921Z,13.70
2023-05-16T19:27:58.259Z,13.60
2023-05-16T19:30:25.595Z,13.60
2023-05-16T19:32:53.331Z,13.60
2023-05-16T19:35:20.515Z,13.60
2023-05-16T19:37:47.807Z,13.70
2023-05-16T19:40:17.285Z,13.70
2023-05-16T19:42:44.644Z,13.60
2023-05-16T19:45:11.825Z,13.70
2023-05-16T19:47:39.045Z,13.60
2023-05-16T19:50:07.043Z,13.60
2023-05-16T19:52:34.225Z,13.70
2023-05-16T19:55:01.703Z,13.70
2023-05-16T19:57:28.944Z,13.70
2023-05-16T19:59:55.978Z,13.70
2023-05-16T20:02:24.405Z,13.80
2023-05-16T20:04:52.220Z,13.70
2023-05-16T20:07:19.289Z,13.70
2023-05-16T20:09:46.398Z,13.70
2023-05-16T20:12:13.545Z,13.70
2023-05-16T20:14:40.989Z,13.70
2023-05-16T20:17:08.107Z,13.70
2023-05-16T20:19:36.594Z,13.60
2023-05-16T20:22:03.916Z,13.70
2023-05-16T20:24:30.987Z,13.60
2023-05-16T20:26:57.904Z,13.60
2023-05-16T20:29:25.157Z,13.60
2023-05-16T20:31:52.123Z,13.60
2023-05-16T20:34:19.415Z,13.60
2023-05-16T20:36:46.528Z,13.50
2023-05-16T20:39:13.548Z,13.50
2023-05-16T20:41:40.593Z,13.40
2023-05-16T20:44:07.590Z,13.40
2023-05-16T20:46:34.787Z,13.30
2023-05-16T20:49:01.819Z,13.30
2023-05-16T20:51:28.845Z,13.30
2023-05-16T20:53:56.394Z,13.30
2023-05-16T20:56:23.548Z,13.40
2023-05-16T20:58:50.606Z,13.30
2023-05-16T21:01:17.649Z,13.20
2023-05-16T21:03:44.649Z,13.30
2023-05-16T21:06:11.762Z,13.30
2023-05-16T21:08:38.961Z,13.30
2023-05-16T21:11:05.905Z,13.20
2023-05-16T21:13:33.014Z,13.30
2023-05-16T21:15:59.932Z,13.20
2023-05-16T21:18:27.046Z,13.30
2023-05-16T21:20:56.589Z,13.20
2023-05-16T21:23:23.595Z,13.20
2023-05-16T21:25:50.639Z,13.20
2023-05-16T21:28:17.715Z,13.20
2023-05-16T21:30:44.699Z,13.20
2023-05-16T21:33:11.788Z,13.20
2023-05-16T21:35:39.014Z,13.20
2023-05-16T21:38:05.996Z,13.20
2023-05-16T21:40:33.030Z,13.20
2023-05-16T21:43:00.005Z,13.10
2023-05-16T21:45:27.051Z,13.10
2023-05-16T21:47:54.222Z,13.10
2023-05-16T21:50:21.567Z,13.10
2023-05-16T21:52:48.626Z,13.10
2023-05-16T21:55:16.299Z,13.00
2023-05-16T21:57:43.250Z,13.00
2023-05-16T22:00:13.826Z,13.00
2023-05-16T22:02:40.926Z,13.00
2023-05-16T22:05:08.616Z,13.00
2023-05-16T22:07:36.276Z,13.00
2023-05-16T22:10:05.041Z,13.00
2023-05-16T22:12:32.060Z,13.10
2023-05-16T22:14:59.209Z,13.10
2023-05-16T22:17:26.480Z,13.00
2023-05-16T22:19:53.539Z,13.00
2023-05-16T22:22:20.547Z,13.00
2023-05-16T22:24:47.639Z,13.00
2023-05-16T22:27:14.560Z,12.90
2023-05-16T22:29:41.500Z,12.90
2023-05-16T22:32:09.692Z,12.70
2023-05-16T22:34:39.848Z,12.80
2023-05-16T22:37:07.781Z,12.80
2023-05-16T22:39:35.480Z,12.70
2023-05-16T22:42:02.508Z,12.70
2023-05-16T22:44:29.649Z,12.60
2023-05-16T22:46:56.579Z,12.60
2023-05-16T22:49:23.515Z,12.60
2023-05-16T22:51:50.610Z,12.50
2023-05-16T22:54:17.631Z,12.50
2023-05-16T22:56:44.725Z,12.50
2023-05-16T22:59:11.719Z,12.50
2023-05-16T23:01:38.983Z,12.50
2023-05-16T23:04:06.319Z,12.40
2023-05-16T23:06:33.364Z,12.40
2023-05-16T23:09:00.769Z,12.40
2023-05-16T23:11:27.837Z,12.40
2023-05-16T23:13:54.876Z,12.30
2023-05-16T23:16:21.988Z,12.30
2023-05-16T23:18:49.206Z,12.30
2023-05-16T23:21:16.174Z,12.30
2023-05-16T23:23:43.121Z,12.30
2023-05-16T23:26:10.423Z,12.30
2023-05-16T23:28:37.356Z,12.20
2023-05-16T23:31:04.376Z,12.30
2023-05-16T23:33:33.326Z,12.20
2023-05-16T23:36:00.440Z,12.10
2023-05-16T23:38:27.620Z,12.10
2023-05-16T23:40:54.591Z,12.20
2023-05-16T23:43:21.743Z,12.10
2023-05-16T23:45:48.832Z,12.10
2023-05-16T23:48:16.023Z,12.00
2023-05-16T23:50:43.323Z,12.00
2023-05-16T23:53:10.451Z,12.00
2023-05-16T23:55:37.486Z,11.90
2023-05-16T23:58:04.624Z,11.90
